sensor_id;sensor_type;location;lat;lon;timestamp;temperature;humidity
2603;DHT22;1311;47.966;7.958;2022-10-16T00:01:03;14.60;99.90
2603;DHT22;1311;47.966;7.958;2022-10-16T00:03:30;15.50;99.90
2603;DHT22;1311;47.966;7.958;2022-10-16T00:05:59;14.70;99.90
2603;DHT22;1311;47.966;7.958;2022-10-16T00:08:29;14.70;99.90
2603;DHT22;1311;47.966;7.958;2022-10-16T00:10:59;14.70;99.90
2603;DHT22;1311;47.966;7.958;2022-10-16T00:13:26;14.70;99.90
2603;DHT22;1311;47.966;7.958;2022-10-16T00:15:54;14.70;99.90
2603;DHT22;1311;47.966;7.958;2022-10-16T00:18:21;14.80;99.90
2603;DHT22;1311;47.966;7.958;2022-10-16T00:20:48;14.80;99.90
2603;DHT22;1311;47.966;7.958;2022-10-16T00:23:16;15.30;99.90
2603;DHT22;1311;47.966;7.958;2022-10-16T00:25:42;14.80;99.90
2603;DHT22;1311;47.966;7.958;2022-10-16T00:28:09;14.70;99.90
2603;DHT22;1311;47.966;7.958;2022-10-16T00:30:37;14.80;99.90
2603;DHT22;1311;47.966;7.958;2022-10-16T00:33:03;14.80;99.90
2603;DHT22;1311;47.966;7.958;2022-10-16T00:35:30;14.70;99.90
2603;DHT22;1311;47.966;7.958;2022-10-16T00:37:57;14.70;99.90
2603;DHT22;1311;47.966;7.958;2022-10-16T00:40:25;15.20;99.90
2603;DHT22;1311;47.966;7.958;2022-10-16T00:42:53;15.50;99.90
2603;DHT22;1311;47.966;7.958;2022-10-16T00:45:20;14.80;99.90
2603;DHT22;1311;47.966;7.958;2022-10-16T00:47:46;14.70;99.90
2603;DHT22;1311;47.966;7.958;2022-10-16T00:50:16;14.70;99.90
2603;DHT22;1311;47.966;7.958;2022-10-16T00:52:46;14.70;99.90
2603;DHT22;1311;47.966;7.958;2022-10-16T00:55:13;14.70;99.90
2603;DHT22;1311;47.966;7.958;2022-10-16T00:57:41;14.70;99.90
2603;DHT22;1311;47.966;7.958;2022-10-16T01:00:09;14.70;99.90
2603;DHT22;1311;47.966;7.958;2022-10-16T01:02:36;14.60;99.90
2603;DHT22;1311;47.966;7.958;2022-10-16T01:05:03;14.70;99.90
2603;DHT22;1311;47.966;7.958;2022-10-16T01:07:33;14.70;99.90
2603;DHT22;1311;47.966;7.958;2022-10-16T01:10:06;14.70;99.90
2603;DHT22;1311;47.966;7.958;2022-10-16T01:12:36;14.70;99.90
2603;DHT22;1311;47.966;7.958;2022-10-16T01:15:06;14.70;99.90
2603;DHT22;1311;47.966;7.958;2022-10-16T01:17:37;14.70;99.90
2603;DHT22;1311;47.966;7.958;2022-10-16T01:20:07;15.40;99.90
2603;DHT22;1311;47.966;7.958;2022-10-16T01:22:41;14.70;99.90
2603;DHT22;1311;47.966;7.958;2022-10-16T01:25:11;14.80;99.90
2603;DHT22;1311;47.966;7.958;2022-10-16T01:27:43;15.50;99.90
2603;DHT22;1311;47.966;7.958;2022-10-16T01:30:13;14.80;99.90
2603;DHT22;1311;47.966;7.958;2022-10-16T01:32:43;14.90;99.90
2603;DHT22;1311;47.966;7.958;2022-10-16T01:35:14;14.80;99.90
2603;DHT22;1311;47.966;7.958;2022-10-16T01:37:48;14.90;99.90
2603;DHT22;1311;47.966;7.958;2022-10-16T01:40:16;14.90;99.90
2603;DHT22;1311;47.966;7.958;2022-10-16T01:42:46;14.90;99.90
2603;DHT22;1311;47.966;7.958;2022-10-16T01:45:13;14.90;99.90
2603;DHT22;1311;47.966;7.958;2022-10-16T01:47:43;14.80;99.90
2603;DHT22;1311;47.966;7.958;2022-10-16T01:50:10;14.70;99.90
2603;DHT22;1311;47.966;7.958;2022-10-16T01:52:39;14.70;99.90
2603;DHT22;1311;47.966;7.958;2022-10-16T01:55:08;14.60;99.90
2603;DHT22;1311;47.966;7.958;2022-10-16T01:57:36;14.60;99.90
2603;DHT22;1311;47.966;7.958;2022-10-16T02:00:07;14.60;99.90
2603;DHT22;1311;47.966;7.958;2022-10-16T02:02:35;14.60;99.90
2603;DHT22;1311;47.966;7.958;2022-10-16T02:05:03;14.50;99.90
2603;DHT22;1311;47.966;7.958;2022-10-16T02:07:31;14.50;99.90
2603;DHT22;1311;47.966;7.958;2022-10-16T02:09:57;14.60;99.90
2603;DHT22;1311;47.966;7.958;2022-10-16T02:12:26;14.60;99.90
2603;DHT22;1311;47.966;7.958;2022-10-16T02:14:53;14.60;99.90
2603;DHT22;1311;47.966;7.958;2022-10-16T02:17:22;14.50;99.90
2603;DHT22;1311;47.966;7.958;2022-10-16T02:19:49;14.60;99.90
2603;DHT22;1311;47.966;7.958;2022-10-16T02:22:18;15.30;99.90
2603;DHT22;1311;47.966;7.958;2022-10-16T02:24:49;14.60;99.90
2603;DHT22;1311;47.966;7.958;2022-10-16T02:27:19;14.80;99.90
2603;DHT22;1311;47.966;7.958;2022-10-16T02:29:52;14.70;99.90
2603;DHT22;1311;47.966;7.958;2022-10-16T02:32:26;14.70;99.90
2603;DHT22;1311;47.966;7.958;2022-10-16T02:34:53;14.60;99.90
2603;DHT22;1311;47.966;7.958;2022-10-16T02:37:20;14.60;99.90
2603;DHT22;1311;47.966;7.958;2022-10-16T02:39:47;14.60;99.90
2603;DHT22;1311;47.966;7.958;2022-10-16T02:42:14;14.60;99.90
2603;DHT22;1311;47.966;7.958;2022-10-16T02:44:41;14.50;99.90
2603;DHT22;1311;47.966;7.958;2022-10-16T02:47:07;14.50;99.90
2603;DHT22;1311;47.966;7.958;2022-10-16T02:49:36;14.40;99.90
2603;DHT22;1311;47.966;7.958;2022-10-16T02:52:02;14.50;99.90
2603;DHT22;1311;47.966;7.958;2022-10-16T02:54:29;14.50;99.90
2603;DHT22;1311;47.966;7.958;2022-10-16T02:56:56;14.50;99.90
2603;DHT22;1311;47.966;7.958;2022-10-16T02:59:23;14.50;99.90
2603;DHT22;1311;47.966;7.958;2022-10-16T03:01:49;15.40;99.90
2603;DHT22;1311;47.966;7.958;2022-10-16T03:04:16;14.50;99.90
2603;DHT22;1311;47.966;7.958;2022-10-16T03:06:44;14.50;99.90
2603;DHT22;1311;47.966;7.958;2022-10-16T03:09:11;14.50;99.90
2603;DHT22;1311;47.966;7.958;2022-10-16T03:11:37;14.50;99.90
2603;DHT22;1311;47.966;7.958;2022-10-16T03:14:04;14.50;99.90
2603;DHT22;1311;47.966;7.958;2022-10-16T03:16:31;14.60;99.90
2603;DHT22;1311;47.966;7.958;2022-10-16T03:18:57;14.50;99.90
2603;DHT22;1311;47.966;7.958;2022-10-16T03:21:24;14.50;99.90
2603;DHT22;1311;47.966;7.958;2022-10-16T03:23:52;15.10;99.90
2603;DHT22;1311;47.966;7.958;2022-10-16T03:26:18;14.50;99.90
2603;DHT22;1311;47.966;7.958;2022-10-16T03:28:45;14.50;99.90
2603;DHT22;1311;47.966;7.958;2022-10-16T03:31:12;14.50;99.90
2603;DHT22;1311;47.966;7.958;2022-10-16T03:33:38;14.50;99.90
2603;DHT22;1311;47.966;7.958;2022-10-16T03:36:05;14.50;99.90
2603;DHT22;1311;47.966;7.958;2022-10-16T03:38:32;14.50;99.90
2603;DHT22;1311;47.966;7.958;2022-10-16T03:41:00;14.50;99.90
2603;DHT22;1311;47.966;7.958;2022-10-16T03:43:26;14.50;99.90
2603;DHT22;1311;47.966;7.958;2022-10-16T03:45:53;15.30;99.90
2603;DHT22;1311;47.966;7.958;2022-10-16T03:48:19;14.50;99.90
2603;DHT22;1311;47.966;7.958;2022-10-16T03:50:46;14.60;99.90
2603;DHT22;1311;47.966;7.958;2022-10-16T03:53:13;14.50;99.90
2603;DHT22;1311;47.966;7.958;2022-10-16T03:55:41;14.50;99.90
2603;DHT22;1311;47.966;7.958;2022-10-16T03:58:09;14.60;99.90
2603;DHT22;1311;47.966;7.958;2022-10-16T04:00:35;14.60;99.90
2603;DHT22;1311;47.966;7.958;2022-10-16T04:03:03;14.60;99.90
2603;DHT22;1311;47.966;7.958;2022-10-16T04:05:29;14.60;99.90
2603;DHT22;1311;47.966;7.958;2022-10-16T04:07:56;14.70;99.90
2603;DHT22;1311;47.966;7.958;2022-10-16T04:10:22;14.80;99.90
2603;DHT22;1311;47.966;7.958;2022-10-16T04:12:49;14.80;99.90
2603;DHT22;1311;47.966;7.958;2022-10-16T04:15:17;14.80;99.90
2603;DHT22;1311;47.966;7.958;2022-10-16T04:17:44;14.90;99.90
2603;DHT22;1311;47.966;7.958;2022-10-16T04:20:10;15.00;99.90
2603;DHT22;1311;47.966;7.958;2022-10-16T04:22:37;15.00;99.90
2603;DHT22;1311;47.966;7.958;2022-10-16T04:25:04;15.00;99.90
2603;DHT22;1311;47.966;7.958;2022-10-16T04:27:31;15.00;99.90
2603;DHT22;1311;47.966;7.958;2022-10-16T04:29:58;15.10;99.90
2603;DHT22;1311;47.966;7.958;2022-10-16T04:32:26;15.00;99.90
2603;DHT22;1311;47.966;7.958;2022-10-16T04:34:52;15.00;99.90
2603;DHT22;1311;47.966;7.958;2022-10-16T04:37:22;15.00;99.90
2603;DHT22;1311;47.966;7.958;2022-10-16T04:39:49;15.00;99.90
2603;DHT22;1311;47.966;7.958;2022-10-16T04:42:15;15.00;99.90
2603;DHT22;1311;47.966;7.958;2022-10-16T04:44:42;15.00;99.90
2603;DHT22;1311;47.966;7.958;2022-10-16T04:47:09;15.20;99.90
2603;DHT22;1311;47.966;7.958;2022-10-16T04:49:37;14.90;99.90
2603;DHT22;1311;47.966;7.958;2022-10-16T04:52:03;14.90;99.90
2603;DHT22;1311;47.966;7.958;2022-10-16T04:54:30;15.00;99.90
2603;DHT22;1311;47.966;7.958;2022-10-16T04:56:57;15.00;99.90
2603;DHT22;1311;47.966;7.958;2022-10-16T04:59:24;15.00;99.90
2603;DHT22;1311;47.966;7.958;2022-10-16T05:01:50;15.00;99.90
2603;DHT22;1311;47.966;7.958;2022-10-16T05:04:17;15.10;99.90
2603;DHT22;1311;47.966;7.958;2022-10-16T05:06:45;15.00;99.90
2603;DHT22;1311;47.966;7.958;2022-10-16T05:09:12;14.90;99.90
2603;DHT22;1311;47.966;7.958;2022-10-16T05:11:38;15.00;99.90
2603;DHT22;1311;47.966;7.958;2022-10-16T05:14:05;14.90;99.90
2603;DHT22;1311;47.966;7.958;2022-10-16T05:16:31;15.00;99.90
2603;DHT22;1311;47.966;7.958;2022-10-16T05:18:58;14.90;99.90
2603;DHT22;1311;47.966;7.958;2022-10-16T05:21:24;14.90;99.90
2603;DHT22;1311;47.966;7.958;2022-10-16T05:23:53;14.90;99.90
2603;DHT22;1311;47.966;7.958;2022-10-16T05:26:20;14.90;99.90
2603;DHT22;1311;47.966;7.958;2022-10-16T05:28:47;14.90;99.90
2603;DHT22;1311;47.966;7.958;2022-10-16T05:31:14;15.00;99.90
2603;DHT22;1311;47.966;7.958;2022-10-16T05:33:40;15.00;99.90
2603;DHT22;1311;47.966;7.958;2022-10-16T05:36:07;15.00;99.90
2603;DHT22;1311;47.966;7.958;2022-10-16T05:38:35;15.10;99.90
2603;DHT22;1311;47.966;7.958;2022-10-16T05:41:04;15.10;99.90
2603;DHT22;1311;47.966;7.958;2022-10-16T05:43:31;15.10;99.90
2603;DHT22;1311;47.966;7.958;2022-10-16T05:45:58;15.10;99.90
2603;DHT22;1311;47.966;7.958;2022-10-16T05:48:25;15.10;99.90
2603;DHT22;1311;47.966;7.958;2022-10-16T05:50:58;15.10;99.90
2603;DHT22;1311;47.966;7.958;2022-10-16T05:53:26;15.10;99.90
2603;DHT22;1311;47.966;7.958;2022-10-16T05:55:53;15.00;99.90
2603;DHT22;1311;47.966;7.958;2022-10-16T05:58:21;15.00;99.90
2603;DHT22;1311;47.966;7.958;2022-10-16T06:00:55;15.00;99.90
2603;DHT22;1311;47.966;7.958;2022-10-16T06:03:21;15.10;99.90
2603;DHT22;1311;47.966;7.958;2022-10-16T06:05:48;15.00;99.90
2603;DHT22;1311;47.966;7.958;2022-10-16T06:08:15;15.00;99.90
2603;DHT22;1311;47.966;7.958;2022-10-16T06:10:41;15.00;99.90
2603;DHT22;1311;47.966;7.958;2022-10-16T06:13:08;15.00;99.90
2603;DHT22;1311;47.966;7.958;2022-10-16T06:15:36;15.00;99.90
2603;DHT22;1311;47.966;7.958;2022-10-16T06:18:04;15.10;99.90
2603;DHT22;1311;47.966;7.958;2022-10-16T06:20:30;15.10;99.90
2603;DHT22;1311;47.966;7.958;2022-10-16T06:22:57;15.20;99.90
2603;DHT22;1311;47.966;7.958;2022-10-16T06:25:24;15.10;99.90
2603;DHT22;1311;47.966;7.958;2022-10-16T06:27:50;15.20;99.90
2603;DHT22;1311;47.966;7.958;2022-10-16T06:30:17;15.20;99.90
2603;DHT22;1311;47.966;7.958;2022-10-16T06:32:45;15.30;99.90
2603;DHT22;1311;47.966;7.958;2022-10-16T06:35:12;15.30;99.90
2603;DHT22;1311;47.966;7.958;2022-10-16T06:37:38;15.30;99.90
2603;DHT22;1311;47.966;7.958;2022-10-16T06:40:05;15.40;99.90
2603;DHT22;1311;47.966;7.958;2022-10-16T06:42:32;15.30;99.90
2603;DHT22;1311;47.966;7.958;2022-10-16T06:44:59;15.40;99.90
2603;DHT22;1311;47.966;7.958;2022-10-16T06:47:26;15.40;99.90
2603;DHT22;1311;47.966;7.958;2022-10-16T06:49:54;15.40;99.90
2603;DHT22;1311;47.966;7.958;2022-10-16T06:52:21;15.50;99.90
2603;DHT22;1311;47.966;7.958;2022-10-16T06:54:49;15.50;99.90
2603;DHT22;1311;47.966;7.958;2022-10-16T06:57:15;15.50;99.90
2603;DHT22;1311;47.966;7.958;2022-10-16T06:59:42;15.60;99.90
2603;DHT22;1311;47.966;7.958;2022-10-16T07:02:09;15.60;99.90
2603;DHT22;1311;47.966;7.958;2022-10-16T07:04:35;15.70;99.90
2603;DHT22;1311;47.966;7.958;2022-10-16T07:07:04;15.60;99.90
2603;DHT22;1311;47.966;7.958;2022-10-16T07:09:30;15.70;99.90
2603;DHT22;1311;47.966;7.958;2022-10-16T07:11:57;15.70;99.90
2603;DHT22;1311;47.966;7.958;2022-10-16T07:14:23;15.60;99.90
2603;DHT22;1311;47.966;7.958;2022-10-16T07:16:50;15.70;99.90
2603;DHT22;1311;47.966;7.958;2022-10-16T07:19:17;15.70;99.90
2603;DHT22;1311;47.966;7.958;2022-10-16T07:21:43;15.70;99.90
2603;DHT22;1311;47.966;7.958;2022-10-16T07:24:12;15.80;99.90
2603;DHT22;1311;47.966;7.958;2022-10-16T07:26:39;15.80;99.90
2603;DHT22;1311;47.966;7.958;2022-10-16T07:29:06;15.80;99.90
2603;DHT22;1311;47.966;7.958;2022-10-16T07:31:33;15.80;99.90
2603;DHT22;1311;47.966;7.958;2022-10-16T07:34:00;15.80;99.90
2603;DHT22;1311;47.966;7.958;2022-10-16T07:36:28;15.90;99.90
2603;DHT22;1311;47.966;7.958;2022-10-16T07:38:55;16.00;99.90
2603;DHT22;1311;47.966;7.958;2022-10-16T07:41:23;16.00;99.90
2603;DHT22;1311;47.966;7.958;2022-10-16T07:43:50;16.00;99.90
2603;DHT22;1311;47.966;7.958;2022-10-16T07:46:17;16.00;99.90
2603;DHT22;1311;47.966;7.958;2022-10-16T07:48:44;16.00;99.90
2603;DHT22;1311;47.966;7.958;2022-10-16T07:51:13;16.20;99.90
2603;DHT22;1311;47.966;7.958;2022-10-16T07:53:40;16.20;99.90
2603;DHT22;1311;47.966;7.958;2022-10-16T07:56:07;16.40;99.90
2603;DHT22;1311;47.966;7.958;2022-10-16T07:58:35;16.50;99.90
2603;DHT22;1311;47.966;7.958;2022-10-16T08:01:03;16.60;99.90
2603;DHT22;1311;47.966;7.958;2022-10-16T08:03:30;16.70;99.90
2603;DHT22;1311;47.966;7.958;2022-10-16T08:05:56;16.80;99.90
2603;DHT22;1311;47.966;7.958;2022-10-16T08:08:23;16.90;99.90
2603;DHT22;1311;47.966;7.958;2022-10-16T08:10:50;16.90;99.90
2603;DHT22;1311;47.966;7.958;2022-10-16T08:13:16;17.10;99.90
2603;DHT22;1311;47.966;7.958;2022-10-16T08:15:44;17.10;99.90
2603;DHT22;1311;47.966;7.958;2022-10-16T08:18:11;17.20;99.90
2603;DHT22;1311;47.966;7.958;2022-10-16T08:20:39;17.40;99.90
2603;DHT22;1311;47.966;7.958;2022-10-16T08:23:06;17.40;99.90
2603;DHT22;1311;47.966;7.958;2022-10-16T08:25:34;17.50;99.90
2603;DHT22;1311;47.966;7.958;2022-10-16T08:28:00;17.50;99.90
2603;DHT22;1311;47.966;7.958;2022-10-16T08:30:29;17.60;99.90
2603;DHT22;1311;47.966;7.958;2022-10-16T08:32:57;17.60;99.90
2603;DHT22;1311;47.966;7.958;2022-10-16T08:35:24;18.40;99.90
2603;DHT22;1311;47.966;7.958;2022-10-16T08:37:50;17.70;99.90
2603;DHT22;1311;47.966;7.958;2022-10-16T08:40:18;17.70;99.90
2603;DHT22;1311;47.966;7.958;2022-10-16T08:42:53;17.60;99.90
2603;DHT22;1311;47.966;7.958;2022-10-16T08:45:29;17.80;99.90
2603;DHT22;1311;47.966;7.958;2022-10-16T08:48:03;17.80;99.90
2603;DHT22;1311;47.966;7.958;2022-10-16T08:50:32;17.90;99.90
2603;DHT22;1311;47.966;7.958;2022-10-16T08:52:59;18.00;99.90
2603;DHT22;1311;47.966;7.958;2022-10-16T08:55:30;18.10;99.90
2603;DHT22;1311;47.966;7.958;2022-10-16T08:57:59;18.20;99.90
2603;DHT22;1311;47.966;7.958;2022-10-16T09:00:26;18.20;99.90
2603;DHT22;1311;47.966;7.958;2022-10-16T09:02:55;18.20;99.90
2603;DHT22;1311;47.966;7.958;2022-10-16T09:05:33;18.30;99.90
2603;DHT22;1311;47.966;7.958;2022-10-16T09:08:07;18.00;99.90
2603;DHT22;1311;47.966;7.958;2022-10-16T09:10:38;18.00;99.90
2603;DHT22;1311;47.966;7.958;2022-10-16T09:13:11;18.10;99.90
2603;DHT22;1311;47.966;7.958;2022-10-16T09:15:40;18.10;99.90
2603;DHT22;1311;47.966;7.958;2022-10-16T09:18:12;18.30;99.90
2603;DHT22;1311;47.966;7.958;2022-10-16T09:20:44;18.50;99.90
2603;DHT22;1311;47.966;7.958;2022-10-16T09:23:16;18.50;99.90
2603;DHT22;1311;47.966;7.958;2022-10-16T09:25:44;18.70;99.90
2603;DHT22;1311;47.966;7.958;2022-10-16T09:28:11;18.80;99.90
2603;DHT22;1311;47.966;7.958;2022-10-16T09:30:37;18.90;99.90
2603;DHT22;1311;47.966;7.958;2022-10-16T09:33:09;19.00;99.90
2603;DHT22;1311;47.966;7.958;2022-10-16T09:35:36;19.20;99.90
2603;DHT22;1311;47.966;7.958;2022-10-16T09:38:05;19.00;99.90
2603;DHT22;1311;47.966;7.958;2022-10-16T09:40:34;19.10;99.90
2603;DHT22;1311;47.966;7.958;2022-10-16T09:43:02;19.40;99.90
2603;DHT22;1311;47.966;7.958;2022-10-16T09:45:29;19.60;99.90
2603;DHT22;1311;47.966;7.958;2022-10-16T09:47:56;19.60;99.90
2603;DHT22;1311;47.966;7.958;2022-10-16T09:50:23;19.70;99.90
2603;DHT22;1311;47.966;7.958;2022-10-16T09:53:02;19.70;99.90
2603;DHT22;1311;47.966;7.958;2022-10-16T09:55:30;19.90;99.90
2603;DHT22;1311;47.966;7.958;2022-10-16T09:57:56;19.70;99.90
2603;DHT22;1311;47.966;7.958;2022-10-16T10:00:23;19.80;99.90
2603;DHT22;1311;47.966;7.958;2022-10-16T10:02:51;20.00;99.90
2603;DHT22;1311;47.966;7.958;2022-10-16T10:05:19;20.10;99.90
2603;DHT22;1311;47.966;7.958;2022-10-16T10:07:52;20.30;99.90
2603;DHT22;1311;47.966;7.958;2022-10-16T10:10:20;20.40;99.90
2603;DHT22;1311;47.966;7.958;2022-10-16T10:12:49;20.60;99.90
2603;DHT22;1311;47.966;7.958;2022-10-16T10:15:15;20.90;99.90
2603;DHT22;1311;47.966;7.958;2022-10-16T10:17:46;21.10;99.90
2603;DHT22;1311;47.966;7.958;2022-10-16T10:20:15;21.30;99.90
2603;DHT22;1311;47.966;7.958;2022-10-16T10:22:47;21.70;99.90
2603;DHT22;1311;47.966;7.958;2022-10-16T10:25:15;22.00;99.90
2603;DHT22;1311;47.966;7.958;2022-10-16T10:27:53;22.20;99.90
2603;DHT22;1311;47.966;7.958;2022-10-16T10:30:24;22.30;99.90
2603;DHT22;1311;47.966;7.958;2022-10-16T10:32:54;22.40;99.90
2603;DHT22;1311;47.966;7.958;2022-10-16T10:35:25;22.60;99.90
2603;DHT22;1311;47.966;7.958;2022-10-16T10:37:56;22.60;99.90
2603;DHT22;1311;47.966;7.958;2022-10-16T10:40:30;23.00;99.90
2603;DHT22;1311;47.966;7.958;2022-10-16T10:43:01;22.80;99.90
2603;DHT22;1311;47.966;7.958;2022-10-16T10:45:36;22.80;99.90
2603;DHT22;1311;47.966;7.958;2022-10-16T10:48:09;22.90;99.90
2603;DHT22;1311;47.966;7.958;2022-10-16T10:50:39;23.20;99.90
2603;DHT22;1311;47.966;7.958;2022-10-16T10:53:10;23.00;99.90
2603;DHT22;1311;47.966;7.958;2022-10-16T10:55:40;23.00;99.90
2603;DHT22;1311;47.966;7.958;2022-10-16T10:58:21;23.00;99.90
2603;DHT22;1311;47.966;7.958;2022-10-16T11:00:51;23.00;99.90
2603;DHT22;1311;47.966;7.958;2022-10-16T11:03:27;23.10;99.90
2603;DHT22;1311;47.966;7.958;2022-10-16T11:05:54;23.20;99.90
2603;DHT22;1311;47.966;7.958;2022-10-16T11:08:24;23.40;99.90
2603;DHT22;1311;47.966;7.958;2022-10-16T11:10:53;23.50;99.90
2603;DHT22;1311;47.966;7.958;2022-10-16T11:13:25;23.50;99.90
2603;DHT22;1311;47.966;7.958;2022-10-16T11:15:53;23.70;99.90
2603;DHT22;1311;47.966;7.958;2022-10-16T11:18:21;23.80;99.90
2603;DHT22;1311;47.966;7.958;2022-10-16T11:20:50;23.80;99.90
2603;DHT22;1311;47.966;7.958;2022-10-16T11:23:18;23.90;99.90
2603;DHT22;1311;47.966;7.958;2022-10-16T11:25:47;24.00;99.90
2603;DHT22;1311;47.966;7.958;2022-10-16T11:28:16;24.00;99.90
2603;DHT22;1311;47.966;7.958;2022-10-16T11:30:47;24.90;99.90
2603;DHT22;1311;47.966;7.958;2022-10-16T11:33:26;24.00;99.90
2603;DHT22;1311;47.966;7.958;2022-10-16T11:35:59;24.00;99.90
2603;DHT22;1311;47.966;7.958;2022-10-16T11:38:27;24.20;99.90
2603;DHT22;1311;47.966;7.958;2022-10-16T11:40:57;24.10;99.90
2603;DHT22;1311;47.966;7.958;2022-10-16T11:43:26;24.00;99.90
2603;DHT22;1311;47.966;7.958;2022-10-16T11:45:57;24.00;99.90
2603;DHT22;1311;47.966;7.958;2022-10-16T11:48:25;24.10;99.90
2603;DHT22;1311;47.966;7.958;2022-10-16T11:50:54;23.90;99.90
2603;DHT22;1311;47.966;7.958;2022-10-16T11:53:24;23.90;99.90
2603;DHT22;1311;47.966;7.958;2022-10-16T11:55:55;24.10;99.90
2603;DHT22;1311;47.966;7.958;2022-10-16T11:58:24;24.20;99.90
2603;DHT22;1311;47.966;7.958;2022-10-16T12:00:54;24.20;99.90
2603;DHT22;1311;47.966;7.958;2022-10-16T12:03:25;24.20;99.90
2603;DHT22;1311;47.966;7.958;2022-10-16T12:05:55;24.00;99.90
2603;DHT22;1311;47.966;7.958;2022-10-16T12:08:24;24.10;99.90
2603;DHT22;1311;47.966;7.958;2022-10-16T12:10:51;24.10;99.90
2603;DHT22;1311;47.966;7.958;2022-10-16T12:13:28;24.10;99.90
2603;DHT22;1311;47.966;7.958;2022-10-16T12:16:03;24.20;99.90
2603;DHT22;1311;47.966;7.958;2022-10-16T12:18:32;24.20;99.90
2603;DHT22;1311;47.966;7.958;2022-10-16T12:20:59;24.20;99.90
2603;DHT22;1311;47.966;7.958;2022-10-16T12:23:30;24.40;99.90
2603;DHT22;1311;47.966;7.958;2022-10-16T12:25:58;24.40;99.90
2603;DHT22;1311;47.966;7.958;2022-10-16T12:28:26;24.30;99.90
2603;DHT22;1311;47.966;7.958;2022-10-16T12:30:54;24.40;99.90
2603;DHT22;1311;47.966;7.958;2022-10-16T12:33:22;24.60;99.90
2603;DHT22;1311;47.966;7.958;2022-10-16T12:35:51;24.70;99.90
2603;DHT22;1311;47.966;7.958;2022-10-16T12:38:19;24.80;99.90
2603;DHT22;1311;47.966;7.958;2022-10-16T12:40:53;24.80;99.90
2603;DHT22;1311;47.966;7.958;2022-10-16T12:43:24;24.80;99.90
2603;DHT22;1311;47.966;7.958;2022-10-16T12:45:58;24.80;99.90
2603;DHT22;1311;47.966;7.958;2022-10-16T12:48:25;24.90;99.90
2603;DHT22;1311;47.966;7.958;2022-10-16T12:50:53;24.80;99.90
2603;DHT22;1311;47.966;7.958;2022-10-16T12:53:21;24.90;99.90
2603;DHT22;1311;47.966;7.958;2022-10-16T12:55:51;24.70;99.90
2603;DHT22;1311;47.966;7.958;2022-10-16T12:58:28;24.70;99.90
2603;DHT22;1311;47.966;7.958;2022-10-16T13:01:02;24.70;99.90
2603;DHT22;1311;47.966;7.958;2022-10-16T13:03:44;24.60;99.90
2603;DHT22;1311;47.966;7.958;2022-10-16T13:06:19;24.60;99.90
2603;DHT22;1311;47.966;7.958;2022-10-16T13:11:32;24.50;99.90
2603;DHT22;1311;47.966;7.958;2022-10-16T13:14:09;24.60;99.90
2603;DHT22;1311;47.966;7.958;2022-10-16T13:16:45;24.50;99.90
2603;DHT22;1311;47.966;7.958;2022-10-16T13:19:18;24.50;99.90
2603;DHT22;1311;47.966;7.958;2022-10-16T13:21:51;24.50;99.90
2603;DHT22;1311;47.966;7.958;2022-10-16T13:24:25;24.40;99.90
2603;DHT22;1311;47.966;7.958;2022-10-16T13:26:54;24.40;99.90
2603;DHT22;1311;47.966;7.958;2022-10-16T13:29:23;24.40;99.90
2603;DHT22;1311;47.966;7.958;2022-10-16T13:31:50;24.50;99.90
2603;DHT22;1311;47.966;7.958;2022-10-16T13:34:17;24.50;99.90
2603;DHT22;1311;47.966;7.958;2022-10-16T13:36:46;24.50;99.90
2603;DHT22;1311;47.966;7.958;2022-10-16T13:39:14;24.50;99.90
2603;DHT22;1311;47.966;7.958;2022-10-16T13:41:42;24.50;99.90
2603;DHT22;1311;47.966;7.958;2022-10-16T13:44:13;24.40;99.90
2603;DHT22;1311;47.966;7.958;2022-10-16T13:46:40;24.50;99.90
2603;DHT22;1311;47.966;7.958;2022-10-16T13:49:11;24.50;99.90
2603;DHT22;1311;47.966;7.958;2022-10-16T13:51:38;24.50;99.90
2603;DHT22;1311;47.966;7.958;2022-10-16T13:54:07;24.40;99.90
2603;DHT22;1311;47.966;7.958;2022-10-16T13:56:35;24.30;99.90
2603;DHT22;1311;47.966;7.958;2022-10-16T13:59:03;24.20;99.90
2603;DHT22;1311;47.966;7.958;2022-10-16T14:01:30;24.20;99.90
2603;DHT22;1311;47.966;7.958;2022-10-16T14:04:02;24.20;99.90
2603;DHT22;1311;47.966;7.958;2022-10-16T14:06:30;24.10;99.90
2603;DHT22;1311;47.966;7.958;2022-10-16T14:08:59;24.10;99.90
2603;DHT22;1311;47.966;7.958;2022-10-16T14:11:25;24.10;99.90
2603;DHT22;1311;47.966;7.958;2022-10-16T14:13:54;24.10;99.90
2603;DHT22;1311;47.966;7.958;2022-10-16T14:16:21;24.10;99.90
2603;DHT22;1311;47.966;7.958;2022-10-16T14:18:50;24.10;99.90
2603;DHT22;1311;47.966;7.958;2022-10-16T14:21:20;24.10;99.90
2603;DHT22;1311;47.966;7.958;2022-10-16T14:23:47;24.00;99.90
2603;DHT22;1311;47.966;7.958;2022-10-16T14:26:14;24.00;99.90
2603;DHT22;1311;47.966;7.958;2022-10-16T14:28:41;24.00;99.90
2603;DHT22;1311;47.966;7.958;2022-10-16T14:34:04;24.00;99.90
2603;DHT22;1311;47.966;7.958;2022-10-16T14:36:30;24.00;99.90
2603;DHT22;1311;47.966;7.958;2022-10-16T14:39:01;24.00;99.90
2603;DHT22;1311;47.966;7.958;2022-10-16T14:41:29;24.10;99.90
2603;DHT22;1311;47.966;7.958;2022-10-16T14:43:57;24.10;99.90
2603;DHT22;1311;47.966;7.958;2022-10-16T14:46:30;24.10;99.90
2603;DHT22;1311;47.966;7.958;2022-10-16T14:48:58;24.00;99.90
2603;DHT22;1311;47.966;7.958;2022-10-16T14:51:27;24.00;99.90
2603;DHT22;1311;47.966;7.958;2022-10-16T14:53:54;24.00;99.90
2603;DHT22;1311;47.966;7.958;2022-10-16T14:56:21;24.00;99.90
2603;DHT22;1311;47.966;7.958;2022-10-16T14:58:49;24.00;99.90
2603;DHT22;1311;47.966;7.958;2022-10-16T15:01:17;23.90;99.90
2603;DHT22;1311;47.966;7.958;2022-10-16T15:03:44;23.90;99.90
2603;DHT22;1311;47.966;7.958;2022-10-16T15:06:11;23.80;99.90
2603;DHT22;1311;47.966;7.958;2022-10-16T15:08:39;23.80;99.90
2603;DHT22;1311;47.966;7.958;2022-10-16T15:11:07;23.60;99.90
2603;DHT22;1311;47.966;7.958;2022-10-16T15:13:35;23.60;99.90
2603;DHT22;1311;47.966;7.958;2022-10-16T15:16:02;23.50;99.90
2603;DHT22;1311;47.966;7.958;2022-10-16T15:18:30;23.40;99.90
2603;DHT22;1311;47.966;7.958;2022-10-16T15:20:57;23.30;99.90
2603;DHT22;1311;47.966;7.958;2022-10-16T15:23:24;23.30;99.90
2603;DHT22;1311;47.966;7.958;2022-10-16T15:25:52;23.20;99.90
2603;DHT22;1311;47.966;7.958;2022-10-16T15:28:20;23.10;99.90
2603;DHT22;1311;47.966;7.958;2022-10-16T15:30:48;23.00;99.90
2603;DHT22;1311;47.966;7.958;2022-10-16T15:33:15;22.90;99.90
2603;DHT22;1311;47.966;7.958;2022-10-16T15:35:42;22.80;99.90
2603;DHT22;1311;47.966;7.958;2022-10-16T15:38:10;22.80;99.90
2603;DHT22;1311;47.966;7.958;2022-10-16T15:40:37;22.70;99.90
2603;DHT22;1311;47.966;7.958;2022-10-16T15:43:06;22.50;99.90
2603;DHT22;1311;47.966;7.958;2022-10-16T15:45:34;22.40;99.90
2603;DHT22;1311;47.966;7.958;2022-10-16T15:48:00;22.20;99.90
2603;DHT22;1311;47.966;7.958;2022-10-16T15:50:27;22.00;99.90
2603;DHT22;1311;47.966;7.958;2022-10-16T15:52:54;21.90;99.90
2603;DHT22;1311;47.966;7.958;2022-10-16T15:55:20;21.70;99.90
2603;DHT22;1311;47.966;7.958;2022-10-16T15:57:47;21.60;99.90
2603;DHT22;1311;47.966;7.958;2022-10-16T16:00:16;21.50;99.90
2603;DHT22;1311;47.966;7.958;2022-10-16T16:02:49;21.30;99.90
2603;DHT22;1311;47.966;7.958;2022-10-16T16:05:16;21.20;99.90
2603;DHT22;1311;47.966;7.958;2022-10-16T16:07:43;21.00;99.90
2603;DHT22;1311;47.966;7.958;2022-10-16T16:10:10;20.90;99.90
2603;DHT22;1311;47.966;7.958;2022-10-16T16:12:37;20.70;99.90
2603;DHT22;1311;47.966;7.958;2022-10-16T16:15:05;20.60;99.90